Time;durP1;ratioP1;P1;durP2;ratioP2;P2;SDS_P1;SDS_P2;PMS_P1;PMS_P2;Temp;Humidity;BMP_temperature;BMP_pressure;BME280_temperature;BME280_humidity;BME280_pressure;Samples;Min_cycle;Max_cycle;Signal;HPM_P1;HPM_P2
2023/02/26 05:03:44;;;;;;;2.80;1.92;;;-2.00;99.90;;;;;;6088696;23;20650;-80
2023/02/26 05:06:10;;;;;;;2.97;1.65;;;-2.10;99.90;;;;;;4917608;29;20233;-67
2023/02/26 05:08:36;;;;;;;1.73;1.63;;;-2.10;99.90;;;;;;4920140;29;20644;-63
2023/02/26 05:11:02;;;;;;;1.30;1.20;;;-2.10;99.90;;;;;;4920065;29;20538;-63
2023/02/26 05:13:27;;;;;;;1.07;0.70;;;-2.10;99.90;;;;;;4919825;29;20186;-65
2023/02/26 05:15:53;;;;;;;1.63;1.57;;;-2.10;99.90;;;;;;4919984;29;20231;-66
2023/02/26 05:18:19;;;;;;;1.60;1.50;;;-2.20;99.90;;;;;;4920002;29;20199;-65
2023/02/26 05:20:44;;;;;;;1.20;1.20;;;-2.20;99.90;;;;;;4919975;29;20175;-66
2023/02/26 05:23:10;;;;;;;1.13;1.13;;;-2.20;99.90;;;;;;4919521;29;20577;-65
2023/02/26 05:25:36;;;;;;;1.13;1.13;;;-2.20;99.90;;;;;;4919851;29;20198;-64
2023/02/26 05:28:01;;;;;;;3.10;1.70;;;-2.30;99.90;;;;;;4920142;29;20178;-66
2023/02/26 05:30:27;;;;;;;1.67;1.57;;;-2.30;99.90;;;;;;4919993;29;20174;-64
2023/02/26 05:32:53;;;;;;;1.10;1.10;;;-2.30;99.90;;;;;;4919467;29;20226;-64
2023/02/26 05:35:19;;;;;;;1.70;1.08;;;-2.30;99.90;;;;;;4918509;29;20195;-65
2023/02/26 05:37:44;;;;;;;1.00;1.00;;;-2.30;99.90;;;;;;4919516;29;20194;-65
2023/02/26 05:40:10;;;;;;;5.77;2.87;;;-2.30;99.90;;;;;;4919682;29;20166;-65
2023/02/26 05:42:38;;;;;;;2.80;1.38;;;-2.30;99.90;;;;;;4919474;29;20178;-65
2023/02/26 05:45:05;;;;;;;1.17;1.08;;;-2.30;99.90;;;;;;4919040;29;20187;-64
2023/02/26 05:47:32;;;;;;;2.65;1.88;;;-2.30;99.90;;;;;;4919567;29;20171;-64
2023/02/26 05:49:57;;;;;;;4.10;1.70;;;-2.30;99.90;;;;;;4919265;29;20276;-65
2023/02/26 05:52:23;;;;;;;1.97;1.87;;;-2.30;99.90;;;;;;4919008;29;20240;-65
2023/02/26 05:54:48;;;;;;;2.30;1.23;;;-2.30;99.90;;;;;;4918539;29;20191;-64
2023/02/26 05:57:14;;;;;;;1.90;1.80;;;-2.30;99.90;;;;;;4918847;29;20178;-64
2023/02/26 05:59:40;;;;;;;1.20;1.20;;;-2.20;99.90;;;;;;4918992;29;20669;-64
2023/02/26 06:02:05;;;;;;;1.00;1.00;;;-2.20;99.90;;;;;;4918683;29;20170;-65
2023/02/26 06:04:31;;;;;;;2.60;2.40;;;-2.30;99.90;;;;;;4918525;29;20198;-63
2023/02/26 06:06:56;;;;;;;1.50;1.33;;;-2.20;99.90;;;;;;4917308;29;20280;-64
2023/02/26 06:09:22;;;;;;;3.27;2.10;;;-2.30;99.90;;;;;;4918791;29;20182;-63
2023/02/26 06:11:48;;;;;;;1.50;1.23;;;-2.30;99.90;;;;;;4919138;29;20178;-66
2023/02/26 06:14:13;;;;;;;1.87;1.77;;;-2.30;99.90;;;;;;4917177;29;20211;-63
2023/02/26 06:16:39;;;;;;;1.47;1.37;;;-2.30;99.90;;;;;;4918761;29;20261;-65
2023/02/26 06:19:05;;;;;;;1.60;1.50;;;-2.30;99.90;;;;;;4919039;29;20198;-63
2023/02/26 06:21:30;;;;;;;1.70;1.60;;;-2.30;99.90;;;;;;4918689;29;20167;-65
2023/02/26 06:23:56;;;;;;;2.70;1.80;;;-2.20;99.90;;;;;;4918231;29;20190;-63
2023/02/26 06:26:21;;;;;;;1.13;1.10;;;-2.20;99.90;;;;;;4918499;29;20170;-65
2023/02/26 06:28:47;;;;;;;2.60;2.40;;;-2.10;99.90;;;;;;4918906;29;20284;-64
2023/02/26 06:31:12;;;;;;;2.20;2.10;;;-2.10;99.90;;;;;;4918810;29;20604;-63
2023/02/26 06:33:38;;;;;;;4.47;1.20;;;-2.00;99.90;;;;;;4917936;29;20582;-66
2023/02/26 06:36:04;;;;;;;1.10;1.10;;;-2.00;99.90;;;;;;4918310;29;20638;-66
2023/02/26 06:38:30;;;;;;;4.03;1.83;;;-1.80;99.90;;;;;;4918273;29;20563;-66
2023/02/26 06:40:56;;;;;;;2.33;1.80;;;-1.80;99.90;;;;;;4918256;29;20411;-66
2023/02/26 06:43:21;;;;;;;2.05;1.95;;;-1.70;99.90;;;;;;4916638;29;20176;-66
2023/02/26 06:45:47;;;;;;;2.67;2.47;;;-1.60;99.90;;;;;;4918236;29;20193;-65
2023/02/26 06:48:13;;;;;;;2.37;2.27;;;-1.60;99.90;;;;;;4918113;29;20528;-64
2023/02/26 06:50:38;;;;;;;8.50;1.70;;;-1.60;99.90;;;;;;4918142;29;20171;-66
2023/02/26 06:53:04;;;;;;;1.63;1.53;;;-1.50;99.90;;;;;;4916748;29;20466;-66
2023/02/26 06:55:30;;;;;;;1.70;1.60;;;-1.40;99.90;;;;;;4919054;29;20194;-65
2023/02/26 06:57:56;;;;;;;1.95;1.85;;;-1.40;99.90;;;;;;4932934;29;20197;-65
2023/02/26 07:00:23;;;;;;;1.53;1.53;;;-1.40;99.90;;;;;;4918745;29;20229;-65
2023/02/26 07:02:49;;;;;;;1.67;1.52;;;-1.30;99.90;;;;;;4918337;29;20552;-65
2023/02/26 07:05:15;;;;;;;6.53;1.60;;;-1.20;99.90;;;;;;4918116;29;20336;-65
2023/02/26 07:07:41;;;;;;;1.63;1.53;;;-1.10;99.90;;;;;;4918478;29;20268;-65
2023/02/26 07:10:08;;;;;;;1.73;1.63;;;-1.00;99.90;;;;;;4918301;29;20409;-63
2023/02/26 07:12:34;;;;;;;2.75;1.90;;;-0.90;99.90;;;;;;4918371;29;20170;-67
2023/02/26 07:14:59;;;;;;;1.63;1.53;;;-0.80;99.90;;;;;;4917896;29;20201;-65
2023/02/26 07:17:25;;;;;;;1.70;1.60;;;-0.80;99.90;;;;;;4918135;29;20174;-64
2023/02/26 07:19:51;;;;;;;1.70;1.60;;;-0.60;99.90;;;;;;4916861;29;20182;-65
2023/02/26 07:22:18;;;;;;;6.53;1.95;;;-0.40;99.90;;;;;;4918014;29;20178;-63
2023/02/26 07:24:44;;;;;;;2.85;1.85;;;-0.10;99.90;;;;;;4917594;29;20194;-65
2023/02/26 07:27:11;;;;;;;2.03;1.93;;;0.20;99.90;;;;;;4915633;29;20204;-64
2023/02/26 07:29:37;;;;;;;2.45;1.33;;;0.40;99.90;;;;;;4917531;29;20410;-65
2023/02/26 07:32:03;;;;;;;2.28;2.17;;;0.70;99.90;;;;;;4917771;29;20517;-65
2023/02/26 07:34:29;;;;;;;1.60;1.50;;;1.00;99.90;;;;;;4916381;29;20260;-62
2023/02/26 07:36:54;;;;;;;7.17;2.10;;;1.10;99.90;;;;;;4916719;29;21629;-62
2023/02/26 07:39:20;;;;;;;1.53;1.43;;;1.00;99.90;;;;;;4916724;29;20481;-63
2023/02/26 07:41:45;;;;;;;6.03;1.40;;;1.00;99.90;;;;;;4917343;29;20684;-65
2023/02/26 07:44:11;;;;;;;1.63;1.60;;;1.00;99.90;;;;;;4915107;29;20208;-64
2023/02/26 07:46:37;;;;;;;1.23;1.23;;;0.90;99.90;;;;;;4915774;29;20652;-64
2023/02/26 07:49:02;;;;;;;3.57;2.17;;;0.80;99.90;;;;;;4916938;29;20182;-65
2023/02/26 07:51:28;;;;;;;2.07;1.97;;;0.70;99.90;;;;;;4917096;29;20310;-64
2023/02/26 07:53:53;;;;;;;1.67;1.67;;;0.80;99.90;;;;;;4916607;29;20232;-65
2023/02/26 07:56:19;;;;;;;2.13;1.80;;;0.90;99.90;;;;;;4917488;29;20537;-65
2023/02/26 07:58:45;;;;;;;2.93;1.77;;;1.20;99.90;;;;;;4915512;29;20253;-65
2023/02/26 08:01:11;;;;;;;1.87;1.77;;;1.70;99.90;;;;;;4917457;29;20624;-67
2023/02/26 08:03:37;;;;;;;1.55;1.45;;;2.30;99.90;;;;;;4916820;29;20619;-66
2023/02/26 08:18:14;;;;;;;2.42;1.63;;;3.50;99.90;;;;;;5107732;27;21051;-68
2023/02/26 08:20:43;;;;;;;1.30;1.20;;;3.10;99.90;;;;;;5088651;28;20192;-67
2023/02/26 08:23:09;;;;;;;1.90;1.30;;;2.90;99.90;;;;;;5087567;28;20578;-68
2023/02/26 08:25:35;;;;;;;1.50;1.37;;;2.90;99.90;;;;;;5087843;28;20178;-67
2023/02/26 08:28:02;;;;;;;3.77;1.60;;;2.90;99.90;;;;;;5088205;28;20195;-66
2023/02/26 08:30:28;;;;;;;0.90;0.90;;;2.80;99.90;;;;;;5090337;28;20169;-65
2023/02/26 08:32:53;;;;;;;2.33;1.20;;;3.10;99.90;;;;;;5090313;28;20195;-67
2023/02/26 08:35:19;;;;;;;0.83;0.83;;;3.60;99.90;;;;;;5090075;28;20662;-64
2023/02/26 08:37:45;;;;;;;1.13;1.00;;;4.20;99.90;;;;;;5089065;28;20523;-65
2023/02/26 08:40:11;;;;;;;2.60;1.23;;;4.00;99.90;;;;;;5089503;28;20259;-63
2023/02/26 08:42:37;;;;;;;1.42;1.27;;;3.80;99.90;;;;;;5089982;28;20168;-64
2023/02/26 08:45:03;;;;;;;1.20;1.10;;;3.70;99.90;;;;;;5086719;28;20193;-64
2023/02/26 08:47:29;;;;;;;7.97;1.40;;;3.40;99.90;;;;;;5085662;28;20457;-65
2023/02/26 08:49:57;;;;;;;1.40;1.30;;;2.90;99.90;;;;;;5088180;28;20639;-64
2023/02/26 08:52:23;;;;;;;1.10;0.93;;;2.50;99.90;;;;;;5088335;28;20218;-64
2023/02/26 08:54:49;;;;;;;1.40;1.30;;;2.20;99.90;;;;;;5089005;28;20168;-64
2023/02/26 08:57:15;;;;;;;2.00;1.63;;;1.90;99.90;;;;;;5087940;28;20429;-65
2023/02/26 08:59:41;;;;;;;1.30;1.20;;;1.70;99.90;;;;;;5088687;28;20437;-63
2023/02/26 09:02:09;;;;;;;3.03;1.67;;;1.80;99.90;;;;;;5089432;28;20712;-65
2023/02/26 09:04:34;;;;;;;1.85;1.55;;;1.90;99.90;;;;;;5087368;28;20405;-63
2023/02/26 09:07:00;;;;;;;2.80;1.57;;;2.00;99.90;;;;;;5087941;28;20215;-63
2023/02/26 09:09:25;;;;;;;2.53;2.33;;;2.10;99.90;;;;;;5089442;28;20196;-61
2023/02/26 09:11:51;;;;;;;1.90;1.33;;;2.10;99.90;;;;;;5089802;28;20196;-63
2023/02/26 09:14:16;;;;;;;1.50;1.40;;;2.10;99.90;;;;;;5089392;28;20172;-63
2023/02/26 09:16:42;;;;;;;0.83;0.83;;;2.00;99.90;;;;;;5088908;28;20188;-64
2023/02/26 09:19:08;;;;;;;1.40;1.30;;;1.90;99.90;;;;;;5075864;28;20245;-62
2023/02/26 09:21:34;;;;;;;1.17;1.03;;;1.80;99.90;;;;;;5075459;28;20177;-65
2023/02/26 09:24:00;;;;;;;1.98;1.88;;;1.70;99.90;;;;;;5075284;28;20827;-63
2023/02/26 09:26:26;;;;;;;1.75;1.38;;;1.60;99.90;;;;;;5075453;28;20629;-63
2023/02/26 09:28:52;;;;;;;1.03;0.90;;;1.60;99.90;;;;;;5075035;28;20211;-64
2023/02/26 09:31:18;;;;;;;0.90;0.90;;;1.60;99.90;;;;;;5075520;28;20164;-64
2023/02/26 09:33:43;;;;;;;1.57;0.97;;;1.50;99.90;;;;;;5075843;28;20821;-64
2023/02/26 09:36:09;;;;;;;1.33;1.23;;;1.50;99.90;;;;;;5075533;28;20175;-64
2023/02/26 09:38:35;;;;;;;1.33;1.23;;;1.40;99.90;;;;;;5074988;28;20227;-63
2023/02/26 09:41:08;;;;;;;1.10;1.00;;;1.50;99.90;;;;;;5075430;28;20176;-62
2023/02/26 09:43:42;;;;;;;1.95;1.85;;;1.50;99.90;;;;;;5075490;28;20181;-64
2023/02/26 09:46:27;;;;;;;1.00;0.95;;;1.50;99.90;;;;;;5075456;28;20591;-66
2023/02/26 09:49:03;;;;;;;1.58;1.05;;;1.50;99.90;;;;;;5075045;28;20676;-63
2023/02/26 09:51:30;;;;;;;0.95;0.95;;;1.60;99.90;;;;;;5075711;28;20257;-62
2023/02/26 09:53:59;;;;;;;1.00;1.00;;;1.50;99.90;;;;;;5075245;28;20165;-65
2023/02/26 09:56:26;;;;;;;1.50;1.40;;;1.60;99.90;;;;;;5074877;28;20180;-65
2023/02/26 09:58:52;;;;;;;1.23;1.13;;;1.60;99.90;;;;;;5074520;28;20196;-64
2023/02/26 10:01:24;;;;;;;1.00;1.00;;;1.70;99.90;;;;;;5075159;28;20161;-64
2023/02/26 10:04:14;;;;;;;0.90;0.90;;;1.70;99.90;;;;;;5075144;28;20176;-65
2023/02/26 10:07:03;;;;;;;1.10;1.10;;;1.70;99.90;;;;;;5074116;28;20196;-66
2023/02/26 10:09:51;;;;;;;1.27;1.17;;;1.60;99.90;;;;;;5067404;28;20287;-64
2023/02/26 10:12:25;;;;;;;1.10;0.95;;;1.60;99.90;;;;;;5074659;28;20165;-64
2023/02/26 10:15:03;;;;;;;1.77;0.95;;;1.70;99.90;;;;;;5074822;28;20668;-67
2023/02/26 10:17:41;;;;;;;1.05;0.95;;;1.70;99.90;;;;;;5074301;28;20206;-65
2023/02/26 10:20:21;;;;;;;0.80;0.80;;;1.70;99.90;;;;;;5074707;28;20180;-66
2023/02/26 10:23:05;;;;;;;3.22;1.63;;;1.80;99.90;;;;;;5074906;28;20196;-65
2023/02/26 10:25:40;;;;;;;1.95;1.15;;;1.80;99.90;;;;;;5074487;28;20532;-66
2023/02/26 10:28:33;;;;;;;1.85;1.83;;;1.80;99.90;;;;;;5074068;28;20184;-66
2023/02/26 10:31:20;;;;;;;1.58;1.58;;;1.90;99.90;;;;;;5073445;28;20193;-68
2023/02/26 10:34:09;;;;;;;1.00;0.95;;;2.00;99.90;;;;;;5074207;28;20168;-65
2023/02/26 10:36:48;;;;;;;1.30;1.20;;;2.20;99.90;;;;;;5074599;28;20628;-65
2023/02/26 10:39:52;;;;;;;0.93;0.93;;;2.20;99.90;;;;;;5074058;28;20226;-65
2023/02/26 10:42:31;;;;;;;0.90;0.90;;;2.20;99.90;;;;;;5071901;28;20276;-65
2023/02/26 10:45:24;;;;;;;1.90;1.58;;;2.10;99.90;;;;;;5073883;28;20173;-64
2023/02/26 10:48:24;;;;;;;1.80;1.70;;;2.10;99.90;;;;;;5073714;28;20199;-65
2023/02/26 10:50:52;;;;;;;0.80;0.80;;;2.10;99.90;;;;;;5073989;28;20173;-64
2023/02/26 10:53:20;;;;;;;1.33;1.23;;;2.10;99.90;;;;;;5073830;28;20515;-64
2023/02/26 10:56:18;;;;;;;1.95;1.35;;;2.10;99.90;;;;;;5073963;28;20173;-66
2023/02/26 10:58:44;;;;;;;1.30;1.30;;;2.20;99.90;;;;;;5064038;28;20216;-65
2023/02/26 11:01:25;;;;;;;1.10;1.05;;;2.20;99.90;;;;;;5073746;28;20173;-65
2023/02/26 11:04:06;;;;;;;1.00;1.00;;;2.30;99.90;;;;;;5074224;28;20169;-65
2023/02/26 11:06:47;;;;;;;1.10;1.00;;;2.40;99.90;;;;;;5073940;28;20200;-66
2023/02/26 11:09:26;;;;;;;1.20;0.85;;;2.50;99.90;;;;;;5073725;28;20193;-65
2023/02/26 11:12:15;;;;;;;1.52;1.42;;;2.70;99.90;;;;;;5072408;28;20169;-64
2023/02/26 11:14:42;;;;;;;0.93;0.90;;;3.00;99.90;;;;;;5048622;28;20268;-64
2023/02/26 11:17:18;;;;;;;1.58;1.25;;;3.20;99.90;;;;;;5053119;28;20185;-65
2023/02/26 11:20:04;;;;;;;1.48;1.38;;;3.40;99.90;;;;;;5064830;28;20688;-65
2023/02/26 11:22:32;;;;;;;1.10;1.10;;;3.60;99.90;;;;;;5052250;28;20670;-66
2023/02/26 11:24:59;;;;;;;1.20;1.08;;;3.80;99.90;;;;;;5062517;28;20183;-64
2023/02/26 11:27:31;;;;;;;1.17;1.17;;;4.00;99.90;;;;;;5072498;28;20193;-64
2023/02/26 11:30:03;;;;;;;1.08;1.08;;;3.90;99.90;;;;;;5072691;28;20236;-63
2023/02/26 11:32:33;;;;;;;1.83;1.73;;;3.70;99.90;;;;;;5073456;28;20187;-64
2023/02/26 11:34:59;;;;;;;1.75;1.30;;;3.60;99.90;;;;;;5061296;28;20162;-65
2023/02/26 11:37:51;;;;;;;0.73;0.73;;;3.60;99.90;;;;;;5052814;28;20181;-63
2023/02/26 11:40:39;;;;;;;1.85;1.05;;;3.50;99.90;;;;;;5050975;28;20212;-65
2023/02/26 11:43:10;;;;;;;0.70;0.70;;;3.50;99.90;;;;;;5063117;28;20204;-65
2023/02/26 11:45:40;;;;;;;0.73;0.70;;;3.40;99.90;;;;;;5073229;28;20175;-65
2023/02/26 11:48:15;;;;;;;0.90;0.90;;;3.50;99.90;;;;;;5063852;28;20235;-66
2023/02/26 11:50:45;;;;;;;1.77;1.00;;;3.40;99.90;;;;;;5053066;28;20166;-65
2023/02/26 11:53:23;;;;;;;1.00;1.00;;;3.30;99.90;;;;;;5072159;28;20181;-63
2023/02/26 11:55:52;;;;;;;0.70;0.70;;;3.20;99.90;;;;;;5073413;28;20175;-70
2023/02/26 11:58:23;;;;;;;0.77;0.77;;;2.90;99.90;;;;;;5057863;28;20343;-68
2023/02/26 12:00:52;;;;;;;2.38;2.22;;;2.70;99.90;;;;;;5053236;28;20169;-68
2023/02/26 12:03:25;;;;;;;4.13;1.30;;;2.60;99.90;;;;;;5072123;28;20535;-66
2023/02/26 12:05:52;;;;;;;1.33;1.23;;;2.50;99.90;;;;;;5073395;28;20199;-62
2023/02/26 12:08:24;;;;;;;0.60;0.60;;;2.50;99.90;;;;;;5053779;28;20553;-66
2023/02/26 12:11:25;;;;;;;1.27;1.27;;;2.60;99.90;;;;;;5053325;28;20170;-65
2023/02/26 12:14:36;;;;;;;1.27;1.17;;;2.60;99.90;;;;;;5045520;28;20189;-64
2023/02/26 12:17:30;;;;;;;0.85;0.85;;;2.60;99.90;;;;;;5044160;28;20259;-65
2023/02/26 12:20:21;;;;;;;1.10;0.90;;;2.70;99.90;;;;;;5071819;28;20165;-65
2023/02/26 12:22:54;;;;;;;0.88;0.88;;;2.60;99.90;;;;;;5069553;28;20177;-64
2023/02/26 12:25:20;;;;;;;0.70;0.70;;;2.60;99.90;;;;;;5072724;28;20527;-65
2023/02/26 12:27:49;;;;;;;1.60;0.98;;;2.50;99.90;;;;;;5072414;28;20201;-65
2023/02/26 12:30:27;;;;;;;1.17;1.08;;;2.40;99.90;;;;;;5071266;28;20176;-65
2023/02/26 12:32:58;;;;;;;1.25;1.13;;;2.40;99.90;;;;;;5072202;28;20493;-65
2023/02/26 12:36:06;;;;;;;1.00;1.00;;;2.50;99.90;;;;;;5072606;28;20166;-66
2023/02/26 12:38:56;;;;;;;1.10;1.10;;;2.50;99.90;;;;;;5072434;28;20214;-66
2023/02/26 12:41:33;;;;;;;0.93;0.77;;;2.60;99.90;;;;;;5072881;28;20629;-66
2023/02/26 12:44:12;;;;;;;1.80;1.42;;;2.70;99.90;;;;;;5073017;28;20207;-65
2023/02/26 12:47:10;;;;;;;1.02;0.98;;;2.80;99.90;;;;;;5072617;28;20223;-64
2023/02/26 12:49:54;;;;;;;2.20;0.80;;;2.90;99.90;;;;;;5069510;28;20240;-65
2023/02/26 12:52:39;;;;;;;1.00;1.00;;;3.00;99.90;;;;;;5072869;28;20161;-65
2023/02/26 12:55:39;;;;;;;0.80;0.80;;;3.00;99.90;;;;;;5076508;28;20172;-65
2023/02/26 12:58:23;;;;;;;1.23;1.13;;;3.00;99.90;;;;;;5076123;28;20182;-65
2023/02/26 13:01:03;;;;;;;1.90;1.40;;;3.00;99.90;;;;;;5075221;28;20286;-64
2023/02/26 13:03:42;;;;;;;1.05;0.95;;;3.00;99.90;;;;;;5076413;28;20168;-66
2023/02/26 13:06:34;;;;;;;0.50;0.50;;;2.90;99.90;;;;;;5076379;28;20192;-64
2023/02/26 13:09:24;;;;;;;0.70;0.70;;;3.00;99.90;;;;;;5076009;28;20265;-66
2023/02/26 13:12:13;;;;;;;0.70;0.70;;;3.00;99.90;;;;;;5076065;28;20160;-65
2023/02/26 13:15:20;;;;;;;0.80;0.80;;;3.00;99.90;;;;;;5076066;28;20166;-66
2023/02/26 13:18:12;;;;;;;0.73;0.73;;;2.90;99.90;;;;;;5013617;28;20277;-65
2023/02/26 13:20:46;;;;;;;1.40;1.20;;;3.00;99.90;;;;;;5075942;28;20164;-64
2023/02/26 13:23:18;;;;;;;0.70;0.70;;;3.00;99.90;;;;;;5076048;28;20256;-65
2023/02/26 13:25:54;;;;;;;0.82;0.82;;;3.10;99.90;;;;;;5076110;28;20198;-65
2023/02/26 13:28:47;;;;;;;1.27;0.65;;;3.10;99.90;;;;;;5075483;28;20181;-66
2023/02/26 13:31:19;;;;;;;0.80;0.80;;;3.10;99.50;;;;;;5075767;28;20173;-65
2023/02/26 13:33:47;;;;;;;0.70;0.70;;;3.10;99.60;;;;;;5075893;28;20189;-65
2023/02/26 13:36:15;;;;;;;1.00;0.98;;;3.10;99.90;;;;;;5076000;28;20671;-65
2023/02/26 13:38:46;;;;;;;1.27;1.00;;;3.10;99.90;;;;;;5075290;28;20553;-65
2023/02/26 13:41:15;;;;;;;1.42;1.33;;;3.10;99.90;;;;;;5075426;28;20169;-66
2023/02/26 13:43:52;;;;;;;1.20;1.10;;;3.10;99.90;;;;;;5075044;28;20169;-66
2023/02/26 13:47:05;;;;;;;1.15;1.15;;;3.10;99.10;;;;;;5075069;28;20227;-65
2023/02/26 13:49:49;;;;;;;0.98;0.98;;;3.10;98.30;;;;;;5013471;28;20199;-66
2023/02/26 13:53:10;;;;;;;0.73;0.73;;;3.00;97.80;;;;;;5070364;28;20177;-66
2023/02/26 13:55:43;;;;;;;0.98;0.88;;;3.10;98.30;;;;;;5066355;28;20188;-65
2023/02/26 13:58:22;;;;;;;1.17;1.08;;;3.20;97.10;;;;;;5075059;28;20193;-65
2023/02/26 14:01:17;;;;;;;0.95;0.90;;;3.20;97.60;;;;;;5075260;28;20247;-66
2023/02/26 14:03:50;;;;;;;0.60;0.60;;;3.20;97.60;;;;;;5073220;28;20260;-66
2023/02/26 14:06:46;;;;;;;0.60;0.60;;;3.10;97.20;;;;;;5075226;28;20192;-66
2023/02/26 14:09:41;;;;;;;0.80;0.80;;;3.10;97.10;;;;;;5075215;28;20264;-64
2023/02/26 14:12:14;;;;;;;1.00;0.90;;;3.00;97.50;;;;;;5073918;28;20175;-64
2023/02/26 14:14:42;;;;;;;0.93;0.60;;;3.00;97.60;;;;;;5075037;28;20166;-65
2023/02/26 14:17:08;;;;;;;0.60;0.60;;;3.10;97.60;;;;;;5074567;28;20640;-65
2023/02/26 14:19:36;;;;;;;0.83;0.80;;;3.10;97.50;;;;;;5074782;28;20197;-66
2023/02/26 14:22:08;;;;;;;0.80;0.80;;;3.20;97.30;;;;;;5074529;28;20265;-66
2023/02/26 14:24:52;;;;;;;0.95;0.90;;;3.30;97.60;;;;;;5073563;28;20183;-66
2023/02/26 14:27:17;;;;;;;0.90;0.90;;;3.40;97.00;;;;;;5074363;28;20200;-66
2023/02/26 14:30:03;;;;;;;1.00;1.00;;;3.30;96.90;;;;;;5074652;28;20196;-65
2023/02/26 14:32:31;;;;;;;0.65;0.65;;;3.30;97.60;;;;;;5074784;28;20646;-66
2023/02/26 14:35:10;;;;;;;0.63;0.63;;;3.30;97.90;;;;;;5074716;28;20177;-65
2023/02/26 14:37:38;;;;;;;0.60;0.60;;;3.30;97.90;;;;;;5072784;28;20172;-66
2023/02/26 14:40:24;;;;;;;0.60;0.60;;;3.30;97.20;;;;;;5074439;28;20520;-65
2023/02/26 14:42:56;;;;;;;1.35;1.08;;;3.20;96.00;;;;;;5074471;28;20191;-66
2023/02/26 14:45:29;;;;;;;0.68;0.68;;;3.00;96.00;;;;;;5074519;28;20169;-64
2023/02/26 14:47:59;;;;;;;0.50;0.50;;;3.10;96.40;;;;;;5072511;28;20197;-66
2023/02/26 14:50:34;;;;;;;0.85;0.85;;;3.10;96.20;;;;;;5074533;28;20509;-65
2023/02/26 14:53:27;;;;;;;1.05;1.05;;;3.10;96.50;;;;;;5073017;28;20250;-65
2023/02/26 14:56:11;;;;;;;0.85;0.80;;;3.10;96.90;;;;;;5074389;28;20160;-65
2023/02/26 14:58:45;;;;;;;0.88;0.80;;;3.10;97.20;;;;;;5073811;28;20284;-65
2023/02/26 15:01:28;;;;;;;0.90;0.90;;;3.20;96.70;;;;;;5074246;28;20244;-65
2023/02/26 15:04:00;;;;;;;2.67;0.80;;;3.20;96.40;;;;;;5074011;28;20260;-65
2023/02/26 15:06:42;;;;;;;1.38;1.27;;;3.20;96.20;;;;;;5073955;28;20225;-65
2023/02/26 15:09:20;;;;;;;0.70;0.70;;;3.20;95.90;;;;;;5073604;28;20192;-65
2023/02/26 15:12:14;;;;;;;0.60;0.60;;;3.20;96.20;;;;;;5073583;28;20164;-65
2023/02/26 15:15:25;;;;;;;0.63;0.57;;;3.10;96.30;;;;;;5071954;28;20187;-65
2023/02/26 15:18:03;;;;;;;0.80;0.80;;;3.00;96.50;;;;;;5019213;28;20767;-65
2023/02/26 15:20:38;;;;;;;0.77;0.75;;;2.90;96.50;;;;;;5074439;28;20161;-64
2023/02/26 15:23:21;;;;;;;1.30;0.77;;;2.90;96.90;;;;;;5073237;28;20244;-65
2023/02/26 15:25:48;;;;;;;0.82;0.82;;;2.80;97.20;;;;;;5061955;28;20178;-65
2023/02/26 15:28:18;;;;;;;1.00;0.90;;;2.90;97.20;;;;;;5070038;28;20203;-64
2023/02/26 15:30:47;;;;;;;1.02;0.95;;;2.90;97.20;;;;;;5076591;28;20164;-65
2023/02/26 15:33:16;;;;;;;1.00;0.90;;;2.90;97.10;;;;;;5076186;28;20175;-65
2023/02/26 15:35:43;;;;;;;0.70;0.50;;;2.90;96.40;;;;;;5074478;28;20168;-65
2023/02/26 15:38:09;;;;;;;0.80;0.80;;;2.90;95.70;;;;;;5080055;28;20606;-66
2023/02/26 15:40:36;;;;;;;1.17;0.87;;;2.90;95.70;;;;;;5078227;28;20168;-61
2023/02/26 15:43:05;;;;;;;0.70;0.70;;;2.90;95.70;;;;;;5081132;28;20418;-65
2023/02/26 15:45:40;;;;;;;0.75;0.70;;;3.00;95.50;;;;;;5078668;28;20165;-65
2023/02/26 15:48:12;;;;;;;1.17;1.08;;;3.00;95.60;;;;;;5057527;28;20692;-65
2023/02/26 15:50:43;;;;;;;0.80;0.80;;;3.00;95.40;;;;;;5072153;28;20207;-64
2023/02/26 15:53:27;;;;;;;0.95;0.95;;;2.90;95.40;;;;;;5075324;28;20537;-65
2023/02/26 15:55:55;;;;;;;2.05;0.60;;;2.90;94.80;;;;;;5072853;28;20169;-65
2023/02/26 15:58:43;;;;;;;0.55;0.55;;;2.80;94.10;;;;;;5074995;28;20698;-64
2023/02/26 16:01:18;;;;;;;0.95;0.95;;;2.70;93.50;;;;;;5061280;28;20203;-64
2023/02/26 16:03:44;;;;;;;0.85;0.85;;;2.60;93.60;;;;;;5061167;28;20174;-60
2023/02/26 16:06:22;;;;;;;0.82;0.82;;;2.50;93.70;;;;;;5072321;28;20197;-59
2023/02/26 16:08:48;;;;;;;0.80;0.80;;;2.50;93.80;;;;;;5072808;28;20537;-68
2023/02/26 16:11:15;;;;;;;0.50;0.50;;;2.40;93.70;;;;;;5071442;28;20160;-65
2023/02/26 16:13:43;;;;;;;0.60;0.60;;;2.40;93.70;;;;;;5073639;28;20176;-65
2023/02/26 16:16:22;;;;;;;0.80;0.80;;;2.40;93.60;;;;;;5070651;28;20184;-60
2023/02/26 16:18:48;;;;;;;0.60;0.60;;;2.40;93.90;;;;;;5052741;28;20196;-65
2023/02/26 16:21:29;;;;;;;1.33;0.93;;;2.30;93.80;;;;;;5067185;28;20169;-64
2023/02/26 16:23:57;;;;;;;1.27;0.80;;;2.30;94.00;;;;;;5071968;28;20172;-64
2023/02/26 16:26:36;;;;;;;0.80;0.80;;;2.30;94.00;;;;;;5068787;28;20220;-61
2023/02/26 16:29:08;;;;;;;0.57;0.57;;;2.30;93.80;;;;;;5058541;28;20221;-65
2023/02/26 16:31:36;;;;;;;1.20;1.15;;;2.30;93.80;;;;;;5057421;28;20181;-65
2023/02/26 16:34:34;;;;;;;0.82;0.82;;;2.30;93.60;;;;;;5057076;28;20661;-65
2023/02/26 16:37:22;;;;;;;1.67;0.80;;;2.30;93.50;;;;;;5049497;28;20710;-60
2023/02/26 16:39:56;;;;;;;0.70;0.70;;;2.30;92.70;;;;;;5056768;28;20205;-64
2023/02/26 16:42:36;;;;;;;0.75;0.70;;;2.30;92.80;;;;;;5056817;28;20172;-62
2023/02/26 16:45:36;;;;;;;0.80;0.80;;;2.30;92.80;;;;;;5067659;28;20184;-66
2023/02/26 16:48:12;;;;;;;0.63;0.63;;;2.30;92.80;;;;;;5059695;28;20271;-63
2023/02/26 16:50:38;;;;;;;1.00;1.00;;;2.20;92.80;;;;;;5056857;28;20181;-64
2023/02/26 16:53:16;;;;;;;0.90;0.90;;;2.20;92.90;;;;;;5056912;28;20169;-64
2023/02/26 16:55:46;;;;;;;1.25;1.15;;;2.10;93.20;;;;;;5066779;28;20442;-64
2023/02/26 16:58:14;;;;;;;1.13;1.05;;;2.10;93.40;;;;;;5071428;28;20183;-65
2023/02/26 17:00:43;;;;;;;0.73;0.73;;;2.10;93.50;;;;;;5068074;28;20251;-65
2023/02/26 17:03:15;;;;;;;0.68;0.68;;;2.00;93.90;;;;;;5071949;28;20219;-67
2023/02/26 17:05:50;;;;;;;2.80;1.33;;;2.00;94.10;;;;;;5056193;28;20177;-65
2023/02/26 17:08:18;;;;;;;1.27;0.77;;;2.00;93.80;;;;;;5064457;28;20185;-65
2023/02/26 17:10:46;;;;;;;2.17;0.90;;;1.90;93.80;;;;;;5061695;28;20246;-64
2023/02/26 17:13:33;;;;;;;0.73;0.73;;;1.90;93.70;;;;;;5068640;28;20173;-63
2023/02/26 17:16:02;;;;;;;0.82;0.82;;;1.90;93.70;;;;;;5071517;28;20172;-64
2023/02/26 17:18:29;;;;;;;1.40;1.30;;;1.90;94.00;;;;;;5069454;28;20229;-63
2023/02/26 17:20:57;;;;;;;1.17;1.08;;;1.90;94.10;;;;;;5075971;28;20160;-63
2023/02/26 17:23:28;;;;;;;0.95;0.95;;;1.80;94.10;;;;;;5073626;28;20161;-62
2023/02/26 17:25:55;;;;;;;0.75;0.75;;;1.80;93.80;;;;;;5076678;28;20544;-64
2023/02/26 17:28:26;;;;;;;0.98;0.70;;;1.80;93.80;;;;;;5068155;28;20183;-63
2023/02/26 17:30:53;;;;;;;0.70;0.70;;;1.80;93.40;;;;;;5059793;28;20185;-64
2023/02/26 17:33:19;;;;;;;0.75;0.75;;;1.90;93.50;;;;;;5055940;28;20176;-63
2023/02/26 17:35:45;;;;;;;1.27;1.17;;;1.90;93.40;;;;;;5070535;28;20180;-66
2023/02/26 17:38:12;;;;;;;0.50;0.50;;;1.80;93.50;;;;;;5075040;28;20554;-67
2023/02/26 17:40:39;;;;;;;1.10;1.10;;;1.80;93.40;;;;;;5065353;28;20166;-67
2023/02/26 17:43:06;;;;;;;0.60;0.60;;;1.80;93.40;;;;;;5063973;28;20181;-65
2023/02/26 17:45:33;;;;;;;0.95;0.93;;;1.80;93.40;;;;;;5074740;28;20161;-64
2023/02/26 17:47:58;;;;;;;0.80;0.80;;;1.80;93.60;;;;;;5075509;28;20206;-64
2023/02/26 17:50:35;;;;;;;0.83;0.83;;;1.70;93.70;;;;;;5061002;28;20205;-65
2023/02/26 17:53:01;;;;;;;0.70;0.70;;;1.70;93.60;;;;;;5064268;28;20502;-64
2023/02/26 17:55:27;;;;;;;2.72;1.33;;;1.60;93.70;;;;;;5075589;28;20160;-65
2023/02/26 17:57:54;;;;;;;0.80;0.80;;;1.60;93.80;;;;;;5067214;28;20200;-64
2023/02/26 18:00:19;;;;;;;1.33;1.30;;;1.50;94.20;;;;;;5073641;28;20178;-64
2023/02/26 18:02:45;;;;;;;1.13;0.93;;;1.50;94.40;;;;;;5071207;28;20180;-65
2023/02/26 18:05:11;;;;;;;0.60;0.60;;;1.40;94.50;;;;;;5075520;28;20669;-64
2023/02/26 18:07:37;;;;;;;1.00;1.00;;;1.40;94.60;;;;;;5074008;28;20200;-64
2023/02/26 18:10:03;;;;;;;0.80;0.80;;;1.30;94.60;;;;;;5059467;28;20791;-64
2023/02/26 18:12:29;;;;;;;1.08;1.08;;;1.30;94.60;;;;;;5059943;28;20201;-63
2023/02/26 18:14:55;;;;;;;0.87;0.73;;;1.30;94.90;;;;;;5072786;28;20173;-64
2023/02/26 18:17:26;;;;;;;0.90;0.90;;;1.20;95.00;;;;;;5073789;28;20469;-64
2023/02/26 18:19:53;;;;;;;0.70;0.70;;;1.20;95.00;;;;;;5070753;28;20197;-66
2023/02/26 18:22:22;;;;;;;1.38;0.90;;;1.20;95.00;;;;;;5057971;28;20180;-66
2023/02/26 18:24:48;;;;;;;2.90;1.00;;;1.20;95.10;;;;;;5072044;28;20177;-66
2023/02/26 18:27:19;;;;;;;0.80;0.80;;;1.20;95.20;;;;;;5073602;28;20199;-64
2023/02/26 18:29:45;;;;;;;0.82;0.80;;;1.20;95.30;;;;;;5071579;28;20618;-67
2023/02/26 18:32:15;;;;;;;1.00;0.90;;;1.20;95.30;;;;;;5073141;28;20252;-68
2023/02/26 18:34:41;;;;;;;0.77;0.70;;;1.20;95.30;;;;;;5071039;28;20259;-66
2023/02/26 18:37:16;;;;;;;0.70;0.70;;;1.10;95.50;;;;;;5073632;28;20248;-66
2023/02/26 18:39:45;;;;;;;1.15;1.10;;;1.20;95.20;;;;;;5066905;28;20469;-67